Aviation Digital Data Service (ADDS)

Output produced by TAFs form (1014 UTC 21 November 2017)
found at http://aviationweather.gov/adds/tafs/
 
KTEX 210523Z 2106/2206 23004KT P6SM FEW100 SCT200 
     FM210700 33004KT P6SM FEW120 SCT150 
     FM211000 26005KT P6SM FEW100 SCT150 
     FM211900 34008KT P6SM FEW070 FEW200 
     FM220100 04004KT P6SM FEW035 SCT200